Time;durP1;ratioP1;P1;durP2;ratioP2;P2;SDS_P1;SDS_P2;PMS_P1;PMS_P2;Temp;Humidity;BMP_temperature;BMP_pressure;BME280_temperature;BME280_humidity;BME280_pressure;Samples;Min_cycle;Max_cycle;Signal;HPM_P1;HPM_P2
2022/09/06 00:00:49;;;;;;;2.13;1.77;;;;;;;18.46;86.47;98927.03;5054444;28;20202;-53
2022/09/06 00:03:15;;;;;;;4.32;1.77;;;;;;;18.55;87.14;98923.59;5054388;28;20263;-53
2022/09/06 00:05:42;;;;;;;4.80;1.65;;;;;;;18.39;86.97;98910.25;5054168;28;20200;-53
2022/09/06 00:08:08;;;;;;;2.72;1.83;;;;;;;18.38;87.59;98914.66;5054101;28;20205;-53
2022/09/06 00:10:33;;;;;;;1.80;1.70;;;;;;;18.29;87.69;98915.47;5054279;28;20179;-53
2022/09/06 00:13:09;;;;;;;2.90;1.85;;;;;;;18.13;87.26;98919.63;5054456;28;20200;-52
2022/09/06 00:15:35;;;;;;;3.47;1.50;;;;;;;18.07;87.26;98921.00;5054406;28;20558;-52
2022/09/06 00:18:03;;;;;;;2.75;1.92;;;;;;;18.18;86.58;98927.91;5054276;28;20181;-53
2022/09/06 00:20:30;;;;;;;2.60;1.83;;;;;;;18.23;85.64;98926.50;5054059;28;20232;-52
2022/09/06 00:23:00;;;;;;;3.97;1.73;;;;;;;18.21;85.87;98930.22;5054188;28;20268;-53
2022/09/06 00:25:28;;;;;;;1.88;1.58;;;;;;;18.14;86.15;98927.34;5054182;28;20177;-53
2022/09/06 00:27:58;;;;;;;2.72;1.58;;;;;;;18.16;86.37;98930.66;5053804;28;20693;-53
2022/09/06 00:30:24;;;;;;;2.10;1.83;;;;;;;18.10;88.90;98922.53;5054249;28;20223;-52
2022/09/06 00:32:50;;;;;;;1.85;1.70;;;;;;;18.23;89.08;98925.66;5053838;28;20177;-53
2022/09/06 00:35:17;;;;;;;3.00;1.80;;;;;;;18.15;90.02;98933.41;5053804;28;20209;-52
2022/09/06 00:37:42;;;;;;;3.78;2.05;;;;;;;18.27;89.96;98930.50;5053665;28;20657;-53
2022/09/06 00:40:08;;;;;;;2.95;1.70;;;;;;;18.38;91.13;98942.66;5053623;28;20196;-53
2022/09/06 00:42:34;;;;;;;2.10;1.90;;;;;;;18.28;92.13;98939.19;5053945;28;20185;-53
2022/09/06 00:44:59;;;;;;;6.30;1.92;;;;;;;17.93;94.94;98933.69;5053589;28;20169;-53
2022/09/06 00:47:26;;;;;;;2.42;1.85;;;;;;;17.55;99.04;98931.88;5053759;28;20255;-53
2022/09/06 00:49:56;;;;;;;2.03;1.85;;;;;;;17.43;100.00;98937.38;5053715;28;20177;-52
2022/09/06 00:52:22;;;;;;;2.45;2.25;;;;;;;17.32;100.00;98919.16;5053503;28;20263;-52
2022/09/06 00:54:49;;;;;;;4.45;2.20;;;;;;;17.30;100.00;98934.13;5053639;28;20192;-53
2022/09/06 00:57:16;;;;;;;2.85;1.90;;;;;;;17.28;100.00;98936.06;5053341;28;20588;-53
2022/09/06 00:59:43;;;;;;;2.42;2.05;;;;;;;17.19;100.00;98921.19;5053287;28;20177;-53
2022/09/06 01:02:09;;;;;;;4.82;2.22;;;;;;;17.40;100.00;98924.56;5053212;28;20200;-53
2022/09/06 01:04:37;;;;;;;2.22;2.10;;;;;;;17.58;100.00;98939.47;5052918;28;20570;-53
2022/09/06 01:07:08;;;;;;;2.20;1.98;;;;;;;17.47;100.00;98941.38;5052843;28;20659;-53
2022/09/06 01:10:11;;;;;;;2.83;2.05;;;;;;;16.98;100.00;98938.72;5053403;28;20181;-52
2022/09/06 01:13:03;;;;;;;5.68;2.28;;;;;;;17.16;100.00;98939.75;5053110;28;20172;-53
2022/09/06 01:15:41;;;;;;;2.42;1.92;;;;;;;16.99;100.00;98936.00;5053079;28;20172;-52
2022/09/06 01:18:09;;;;;;;3.30;1.98;;;;;;;16.76;100.00;98936.28;5052932;28;20169;-52
2022/09/06 01:20:43;;;;;;;3.97;2.17;;;;;;;16.76;100.00;98936.28;5052929;28;20203;-52
2022/09/06 01:23:30;;;;;;;2.25;2.08;;;;;;;16.65;100.00;98936.38;5053462;28;20164;-53
2022/09/06 01:26:18;;;;;;;2.00;1.90;;;;;;;16.69;100.00;98940.38;5052747;28;20185;-52
2022/09/06 01:28:45;;;;;;;2.38;2.20;;;;;;;16.36;100.00;98897.00;5034345;28;20641;-53
2022/09/06 01:31:44;;;;;;;2.85;2.10;;;;;;;16.61;100.00;98929.75;5052879;28;20181;-53
2022/09/06 01:34:30;;;;;;;1.90;1.80;;;;;;;16.53;100.00;98926.94;5052839;28;20268;-52
2022/09/06 01:36:59;;;;;;;3.72;2.60;;;;;;;16.29;100.00;98928.97;5052935;28;20169;-52
2022/09/06 01:39:35;;;;;;;2.45;2.08;;;;;;;16.13;100.00;98919.00;5052556;28;20180;-51
2022/09/06 01:42:25;;;;;;;4.50;2.03;;;;;;;16.27;100.00;98926.50;5052514;28;20589;-53
2022/09/06 01:44:55;;;;;;;3.40;2.20;;;;;;;16.27;100.00;98916.03;5051862;28;20720;-53
2022/09/06 01:47:47;;;;;;;2.15;2.05;;;;;;;16.37;100.00;98931.78;5052331;28;20779;-53
2022/09/06 01:50:42;;;;;;;1.90;1.80;;;;;;;16.23;100.00;98921.66;5052651;28;20715;-53
2022/09/06 01:53:22;;;;;;;2.88;2.15;;;;;;;15.90;100.00;98916.59;5034577;28;20165;-53
2022/09/06 01:56:18;;;;;;;2.30;2.10;;;;;;;15.86;100.00;98915.22;5052261;28;20162;-53
2022/09/06 01:59:04;;;;;;;5.70;2.70;;;;;;;15.74;100.00;98901.38;5052725;28;20202;-52
2022/09/06 02:01:48;;;;;;;2.97;2.22;;;;;;;15.89;100.00;98904.50;5052435;28;20161;-53
2022/09/06 02:04:16;;;;;;;2.42;1.90;;;;;;;16.19;100.00;98894.13;5052444;28;20246;-53
2022/09/06 02:06:46;;;;;;;2.65;2.05;;;;;;;16.19;100.00;98888.91;5051913;28;20266;-53
2022/09/06 02:09:20;;;;;;;2.35;2.15;;;;;;;16.31;100.00;98898.34;5052562;28;20264;-53
2022/09/06 02:11:54;;;;;;;3.97;2.17;;;;;;;16.33;100.00;98889.41;5052380;28;20164;-53
2022/09/06 02:14:26;;;;;;;2.03;1.92;;;;;;;16.33;100.00;98888.59;5051730;28;20669;-53
2022/09/06 02:16:53;;;;;;;4.30;1.90;;;;;;;16.41;100.00;98889.66;5052046;28;20154;-52
2022/09/06 02:19:36;;;;;;;1.83;1.73;;;;;;;16.43;100.00;98884.28;5051869;28;20599;-52
2022/09/06 02:22:06;;;;;;;3.47;2.40;;;;;;;16.55;100.00;98884.06;5052197;28;20527;-53
2022/09/06 02:24:36;;;;;;;2.55;2.30;;;;;;;16.67;100.00;98880.41;5051944;28;20162;-52
2022/09/06 02:27:01;;;;;;;1.90;1.80;;;;;;;16.69;100.00;98875.91;5051782;28;20681;-53
2022/09/06 02:29:27;;;;;;;3.33;2.35;;;;;;;16.79;100.00;98897.66;5051866;28;20185;-53
2022/09/06 02:31:58;;;;;;;2.47;1.95;;;;;;;16.81;100.00;98892.28;5051760;28;20707;-52
2022/09/06 02:34:24;;;;;;;2.83;1.92;;;;;;;16.97;100.00;98897.88;5051853;28;20165;-52
2022/09/06 02:36:49;;;;;;;2.42;2.15;;;;;;;16.85;100.00;98906.75;5051757;28;20658;-52
2022/09/06 02:39:15;;;;;;;2.05;1.95;;;;;;;16.48;100.00;98882.09;5051782;28;20260;-53
2022/09/06 02:41:44;;;;;;;3.95;2.10;;;;;;;16.65;100.00;98910.25;5051711;28;20332;-52
2022/09/06 02:44:09;;;;;;;4.45;1.90;;;;;;;16.41;100.00;98900.09;5051908;28;20303;-52
2022/09/06 02:46:35;;;;;;;4.70;2.10;;;;;;;16.42;100.00;98909.59;5051721;28;20659;-53
2022/09/06 02:49:00;;;;;;;2.17;2.08;;;;;;;16.32;100.00;98887.75;5051618;28;20193;-52
2022/09/06 02:51:26;;;;;;;4.10;2.58;;;;;;;16.20;100.00;98904.47;5051909;28;20180;-53
2022/09/06 02:53:51;;;;;;;2.67;2.20;;;;;;;16.30;100.00;98888.84;5051878;28;20186;-52
2022/09/06 02:56:17;;;;;;;3.08;2.67;;;;;;;16.29;100.00;98892.41;5051624;28;20603;-52
2022/09/06 02:58:42;;;;;;;2.95;1.80;;;;;;;16.26;100.00;98898.72;5051559;28;20161;-53
2022/09/06 03:01:08;;;;;;;2.58;1.80;;;;;;;16.51;100.00;98900.16;5051867;28;20215;-52
2022/09/06 03:03:33;;;;;;;2.03;1.85;;;;;;;16.16;100.00;98903.06;5051551;28;20568;-53
2022/09/06 03:05:59;;;;;;;3.30;2.15;;;;;;;15.94;100.00;98897.13;5051752;28;20220;-53
2022/09/06 03:08:25;;;;;;;2.50;2.30;;;;;;;15.88;100.00;98908.09;5051314;28;20193;-53
2022/09/06 03:10:52;;;;;;;2.90;2.70;;;;;;;15.78;100.00;98892.34;5051475;28;20657;-52
2022/09/06 03:13:19;;;;;;;3.03;2.38;;;;;;;16.00;100.00;98899.25;5051860;28;20176;-52
2022/09/06 03:15:50;;;;;;;5.25;2.47;;;;;;;16.06;100.00;98901.34;5051696;28;20540;-52
2022/09/06 03:18:15;;;;;;;2.92;1.88;;;;;;;16.20;100.00;98899.25;5051666;28;20162;-53
2022/09/06 03:20:41;;;;;;;3.90;2.25;;;;;;;16.35;100.00;98910.19;5051391;28;20182;-52
2022/09/06 03:23:06;;;;;;;3.90;2.42;;;;;;;16.43;100.00;98907.78;5051655;28;20260;-53
2022/09/06 03:25:31;;;;;;;2.17;2.08;;;;;;;16.22;100.00;98912.97;5051615;28;20181;-53
2022/09/06 03:27:57;;;;;;;2.22;2.13;;;;;;;16.03;100.00;98917.28;5054948;28;20211;-53
2022/09/06 03:30:22;;;;;;;8.93;3.65;;;;;;;15.95;100.00;98917.06;5055078;28;20239;-52
2022/09/06 03:32:48;;;;;;;3.45;2.58;;;;;;;15.97;100.00;98925.59;5054989;28;20267;-53
2022/09/06 03:35:14;;;;;;;4.13;2.88;;;;;;;15.65;100.00;98916.94;5054946;28;20170;-52
2022/09/06 03:37:39;;;;;;;5.05;2.55;;;;;;;15.75;100.00;98918.69;5054833;28;20769;-53
2022/09/06 03:40:05;;;;;;;2.83;2.58;;;;;;;15.67;100.00;98917.66;5054813;28;20185;-53
2022/09/06 03:42:31;;;;;;;3.72;2.70;;;;;;;15.79;100.00;98920.09;5054702;28;20200;-53
2022/09/06 03:44:57;;;;;;;2.78;2.20;;;;;;;15.82;100.00;98930.31;5054750;28;20199;-53
2022/09/06 03:47:22;;;;;;;3.28;3.00;;;;;;;15.59;100.00;98930.50;5054630;28;20577;-53
2022/09/06 03:49:48;;;;;;;3.60;2.67;;;;;;;15.77;100.00;98931.63;5054863;28;20574;-53
2022/09/06 03:52:13;;;;;;;2.88;2.67;;;;;;;15.74;100.00;98911.81;5054539;28;20179;-53
2022/09/06 03:54:39;;;;;;;2.67;2.42;;;;;;;16.10;100.00;98928.84;5054932;28;20184;-53
2022/09/06 03:57:05;;;;;;;4.45;2.83;;;;;;;15.95;100.00;98940.53;5054447;28;20714;-53
2022/09/06 03:59:31;;;;;;;3.67;2.58;;;;;;;16.13;100.00;98944.25;5054730;28;20212;-53
2022/09/06 04:01:56;;;;;;;5.82;2.53;;;;;;;16.29;100.00;98942.03;5054389;28;20177;-53
2022/09/06 04:04:22;;;;;;;2.75;2.30;;;;;;;16.47;100.00;98937.91;5054393;28;20201;-52
2022/09/06 04:06:47;;;;;;;2.70;2.42;;;;;;;16.21;100.00;98932.22;5054067;28;20232;-52
2022/09/06 04:09:14;;;;;;;4.40;2.67;;;;;;;16.16;100.00;98928.34;5054455;28;20227;-53
2022/09/06 04:11:39;;;;;;;3.90;2.80;;;;;;;16.05;100.00;98937.06;5054773;28;20174;-53
2022/09/06 04:14:05;;;;;;;2.58;2.45;;;;;;;16.11;100.00;98939.19;5054203;28;20177;-52
2022/09/06 04:16:30;;;;;;;4.55;2.63;;;;;;;16.42;100.00;98947.91;5054147;28;20181;-52
2022/09/06 04:18:58;;;;;;;3.17;2.70;;;;;;;16.49;100.00;98960.34;5054006;28;20165;-52
2022/09/06 04:21:24;;;;;;;2.67;2.42;;;;;;;16.52;100.00;98967.94;5053974;28;20181;-52
2022/09/06 04:23:49;;;;;;;2.03;1.92;;;;;;;16.61;100.00;98961.13;5054030;28;20180;-52
2022/09/06 04:26:15;;;;;;;2.20;2.10;;;;;;;16.62;100.00;98957.53;5054071;28;20184;-53
2022/09/06 04:28:40;;;;;;;3.35;2.17;;;;;;;16.59;100.00;98957.78;5054353;28;20308;-53
2022/09/06 04:31:06;;;;;;;3.88;2.60;;;;;;;16.65;100.00;98946.81;5054164;28;20540;-53
2022/09/06 04:33:34;;;;;;;2.50;2.30;;;;;;;16.81;100.00;98962.88;5053830;28;20637;-53
2022/09/06 04:36:01;;;;;;;2.65;2.28;;;;;;;16.85;100.00;98961.66;5053910;28;20178;-53
2022/09/06 04:38:29;;;;;;;3.53;2.70;;;;;;;16.91;100.00;98964.56;5053348;28;20260;-53
2022/09/06 04:40:54;;;;;;;3.40;2.35;;;;;;;16.84;100.00;98958.19;5053669;28;20196;-53
2022/09/06 04:43:21;;;;;;;4.28;3.00;;;;;;;16.93;99.66;98951.34;5053551;28;20182;-53
2022/09/06 04:45:46;;;;;;;2.63;2.42;;;;;;;17.00;98.75;98949.88;5053523;28;20219;-53
2022/09/06 04:48:12;;;;;;;3.38;2.20;;;;;;;17.00;98.20;98947.25;5053502;28;20229;-53
2022/09/06 04:50:38;;;;;;;4.28;2.90;;;;;;;17.05;98.12;98943.31;5053722;28;20201;-52
2022/09/06 04:53:04;;;;;;;6.72;3.38;;;;;;;17.11;98.08;98939.31;5053562;28;20203;-53
2022/09/06 04:55:30;;;;;;;2.95;2.40;;;;;;;17.20;96.74;98938.53;5053536;28;20219;-53
2022/09/06 04:57:58;;;;;;;2.22;1.95;;;;;;;17.18;96.90;98943.88;5053339;28;20177;-51
2022/09/06 05:00:25;;;;;;;2.20;2.00;;;;;;;17.21;96.69;98933.16;5053296;28;20173;-51
2022/09/06 05:02:50;;;;;;;2.47;2.30;;;;;;;17.34;97.59;98935.53;5053262;28;20169;-53
2022/09/06 05:05:16;;;;;;;4.05;2.25;;;;;;;17.37;96.59;98933.47;5053245;28;20676;-50
2022/09/06 05:07:41;;;;;;;3.47;2.00;;;;;;;17.57;93.89;98926.50;5052837;28;20217;-51
2022/09/06 05:10:07;;;;;;;2.78;2.58;;;;;;;17.68;93.36;98936.88;5053128;28;20279;-51
2022/09/06 05:12:32;;;;;;;2.70;2.30;;;;;;;17.64;91.31;98928.47;5053358;28;20185;-51
2022/09/06 05:14:58;;;;;;;4.25;1.95;;;;;;;17.76;90.32;98937.84;5053080;28;20173;-51
2022/09/06 05:17:23;;;;;;;2.90;2.40;;;;;;;17.79;90.36;98931.50;5053211;28;20177;-51
2022/09/06 05:19:49;;;;;;;4.70;3.20;;;;;;;17.80;96.17;98938.38;5053168;28;20699;-51
2022/09/06 05:22:14;;;;;;;4.75;3.75;;;;;;;17.90;100.00;98931.38;5053026;28;20707;-51
2022/09/06 05:24:39;;;;;;;6.78;3.40;;;;;;;17.73;100.00;98900.63;5052917;28;20638;-52
2022/09/06 05:27:06;;;;;;;3.88;3.58;;;;;;;18.09;100.00;98945.28;5052844;28;20177;-52
2022/09/06 05:29:32;;;;;;;4.80;3.65;;;;;;;18.16;100.00;98946.38;5052731;28;20177;-52
2022/09/06 05:31:57;;;;;;;3.72;3.40;;;;;;;18.18;100.00;98941.81;5052721;28;20180;-52
2022/09/06 05:34:23;;;;;;;5.10;3.60;;;;;;;18.39;99.96;98941.69;5034826;28;20173;-53
2022/09/06 05:36:48;;;;;;;5.68;4.40;;;;;;;18.61;97.85;98946.59;5052562;28;20256;-52
2022/09/06 05:39:13;;;;;;;5.32;4.32;;;;;;;18.71;97.16;98944.78;5052599;28;20173;-53
2022/09/06 05:41:39;;;;;;;4.82;4.05;;;;;;;18.79;97.98;98942.28;5052575;28;20180;-52
2022/09/06 05:44:04;;;;;;;5.10;3.70;;;;;;;18.85;96.13;98931.22;5052466;28;20165;-52
2022/09/06 05:46:30;;;;;;;8.40;4.32;;;;;;;18.97;94.83;98932.66;5052462;28;20170;-52
2022/09/06 05:48:59;;;;;;;4.20;3.80;;;;;;;19.03;94.32;98926.84;5051847;28;20193;-53
2022/09/06 05:51:26;;;;;;;4.38;3.58;;;;;;;19.13;93.84;98917.16;5052041;28;20165;-53
2022/09/06 05:53:51;;;;;;;8.18;4.00;;;;;;;19.29;91.64;98933.13;5052527;28;20310;-51
2022/09/06 05:56:17;;;;;;;3.53;3.22;;;;;;;19.06;91.58;98935.25;5052141;28;20260;-50
2022/09/06 05:58:43;;;;;;;3.58;2.60;;;;;;;19.11;87.82;98932.22;5052537;28;20634;-51
2022/09/06 06:01:18;;;;;;;8.23;2.95;;;;;;;19.06;84.57;98931.81;5052241;28;20183;-51
2022/09/06 06:03:54;;;;;;;2.20;2.08;;;;;;;19.23;82.56;98928.47;5052411;28;20176;-51
2022/09/06 06:06:20;;;;;;;3.00;2.38;;;;;;;19.32;82.64;98932.81;5052093;28;20192;-51
2022/09/06 06:08:46;;;;;;;3.53;1.95;;;;;;;19.37;81.92;98936.66;5051987;28;20553;-51
2022/09/06 06:11:12;;;;;;;3.63;2.20;;;;;;;19.48;79.50;98927.75;5052315;28;20185;-51
2022/09/06 06:13:38;;;;;;;5.40;2.42;;;;;;;19.43;80.53;98919.47;5052290;28;20173;-51
2022/09/06 06:16:09;;;;;;;2.20;2.00;;;;;;;19.57;80.37;98929.47;5052056;28;20172;-51
2022/09/06 06:18:35;;;;;;;2.65;2.40;;;;;;;19.69;79.78;98923.06;5051943;28;20177;-51
2022/09/06 06:21:10;;;;;;;2.20;2.10;;;;;;;19.82;79.56;98931.38;5051967;28;20208;-51
2022/09/06 06:23:35;;;;;;;5.07;2.10;;;;;;;19.76;77.90;98931.97;5051903;28;20176;-51
2022/09/06 06:26:01;;;;;;;2.60;2.40;;;;;;;19.85;78.83;98939.78;5034005;28;20621;-51
2022/09/06 06:28:26;;;;;;;5.68;2.35;;;;;;;19.76;77.38;98926.72;5051772;28;20200;-51
2022/09/06 06:30:53;;;;;;;4.53;2.70;;;;;;;19.85;77.86;98934.53;5051785;28;20173;-51
2022/09/06 06:33:19;;;;;;;4.18;2.38;;;;;;;19.85;80.21;98931.06;5051738;28;20173;-51
2022/09/06 06:36:05;;;;;;;3.65;2.95;;;;;;;19.99;88.02;98938.44;5051808;28;20237;-51
2022/09/06 06:38:39;;;;;;;6.13;3.53;;;;;;;19.93;90.35;98933.78;5052095;28;20153;-51
2022/09/06 06:41:06;;;;;;;3.50;2.95;;;;;;;19.64;93.78;98922.66;5052047;28;20252;-51
2022/09/06 06:43:35;;;;;;;4.50;2.80;;;;;;;19.71;93.10;98929.78;5051705;28;20183;-51
2022/09/06 06:46:08;;;;;;;5.88;3.70;;;;;;;19.95;91.58;98934.44;5051985;28;20177;-51
2022/09/06 06:48:40;;;;;;;9.15;4.10;;;;;;;19.85;90.95;98936.31;5051827;28;20695;-52
2022/09/06 06:51:06;;;;;;;6.72;3.70;;;;;;;19.97;90.77;98937.72;5051956;28;20615;-52
2022/09/06 06:53:32;;;;;;;7.15;3.20;;;;;;;20.08;90.89;98940.16;5051630;28;20173;-51
2022/09/06 06:55:58;;;;;;;3.35;2.95;;;;;;;20.02;90.92;98935.47;5051514;28;20177;-52
2022/09/06 06:58:24;;;;;;;8.05;2.95;;;;;;;20.12;89.62;98936.25;5051618;28;20260;-52
2022/09/06 07:00:49;;;;;;;2.72;2.50;;;;;;;20.14;87.88;98931.66;5052343;28;20208;-52
2022/09/06 07:03:15;;;;;;;4.25;2.85;;;;;;;20.08;88.38;98933.13;5055522;28;20230;-51
2022/09/06 07:05:45;;;;;;;6.28;3.10;;;;;;;20.19;89.09;98932.88;5055422;28;20235;-52
2022/09/06 07:08:11;;;;;;;3.40;3.10;;;;;;;20.15;88.61;98928.91;5055421;28;20756;-52
2022/09/06 07:10:37;;;;;;;5.22;3.13;;;;;;;20.23;87.28;98933.41;5055417;28;20260;-53
2022/09/06 07:13:02;;;;;;;3.78;3.28;;;;;;;20.42;86.70;98935.84;5055323;28;20176;-52
2022/09/06 07:15:28;;;;;;;8.63;3.30;;;;;;;20.68;86.62;98937.50;5055216;28;20209;-52
2022/09/06 07:17:55;;;;;;;5.65;3.47;;;;;;;20.85;84.78;98936.59;5055528;28;20195;-52
2022/09/06 07:20:20;;;;;;;6.65;3.22;;;;;;;20.84;83.91;98931.50;5055170;28;20636;-52
2022/09/06 07:22:45;;;;;;;6.53;3.85;;;;;;;20.81;84.91;98932.63;5055164;28;20200;-52
2022/09/06 07:25:12;;;;;;;9.43;3.67;;;;;;;20.90;85.20;98936.16;5055328;28;20252;-52
2022/09/06 07:27:38;;;;;;;7.30;4.28;;;;;;;20.75;83.89;98927.19;5055264;28;20291;-52
2022/09/06 07:30:04;;;;;;;5.60;3.60;;;;;;;21.00;83.66;98934.25;5055315;28;20205;-52
2022/09/06 07:32:30;;;;;;;11.95;4.60;;;;;;;20.75;84.24;98937.69;5054917;28;20177;-52
2022/09/06 07:34:55;;;;;;;4.15;3.60;;;;;;;20.89;84.47;98930.09;5054902;28;20583;-52
2022/09/06 07:37:21;;;;;;;7.90;4.13;;;;;;;20.89;83.25;98924.00;5055371;28;20173;-52
2022/09/06 07:39:46;;;;;;;7.28;4.30;;;;;;;20.93;83.28;98931.41;5055154;28;20173;-52
2022/09/06 07:42:12;;;;;;;10.05;3.78;;;;;;;21.02;83.29;98908.59;5054821;28;20634;-52
2022/09/06 07:44:37;;;;;;;10.05;4.45;;;;;;;21.26;83.59;98927.09;5055019;28;20615;-52
2022/09/06 07:47:05;;;;;;;9.40;4.57;;;;;;;20.95;82.99;98918.94;5054680;28;20719;-52
2022/09/06 07:49:31;;;;;;;5.88;4.32;;;;;;;20.94;82.34;98922.56;5054947;28;20533;-52
2022/09/06 07:51:57;;;;;;;11.25;4.80;;;;;;;21.10;81.62;98927.06;5054660;28;20165;-53
2022/09/06 07:54:22;;;;;;;6.45;4.68;;;;;;;21.32;81.31;98922.03;5054724;28;20180;-52
2022/09/06 07:56:48;;;;;;;9.93;4.07;;;;;;;21.49;80.43;98907.09;5054479;28;20634;-52
2022/09/06 07:59:13;;;;;;;5.72;4.10;;;;;;;21.81;77.35;98921.19;5054483;28;20169;-52
2022/09/06 08:01:39;;;;;;;7.38;3.80;;;;;;;21.84;77.51;98918.22;5054465;28;20177;-52
2022/09/06 08:04:11;;;;;;;5.90;3.90;;;;;;;22.01;77.52;98916.41;5054558;28;20227;-52
2022/09/06 08:06:38;;;;;;;8.60;4.05;;;;;;;22.08;76.94;98920.88;5054161;28;20208;-52
2022/09/06 08:09:07;;;;;;;4.85;4.40;;;;;;;21.93;76.46;98919.91;5054488;28;20193;-52
2022/09/06 08:11:34;;;;;;;6.03;3.30;;;;;;;21.93;77.22;98924.31;5054167;28;20234;-52
2022/09/06 08:14:01;;;;;;;6.30;3.80;;;;;;;21.86;77.74;98918.88;5053403;28;20219;-52
2022/09/06 08:16:28;;;;;;;6.57;3.63;;;;;;;22.09;77.64;98919.06;5054129;28;20658;-53
2022/09/06 08:18:58;;;;;;;3.78;3.40;;;;;;;22.29;75.18;98921.22;5054081;28;20284;-53
2022/09/06 08:21:27;;;;;;;7.88;3.60;;;;;;;22.44;74.49;98910.84;5054158;28;20598;-52
2022/09/06 08:23:56;;;;;;;7.40;3.55;;;;;;;22.15;75.52;98929.75;5053958;28;20264;-52
2022/09/06 08:26:22;;;;;;;6.38;3.88;;;;;;;22.31;74.87;98928.97;5054067;28;20177;-52
2022/09/06 08:29:04;;;;;;;9.98;5.03;;;;;;;22.38;74.01;98922.81;5053901;28;20197;-52
2022/09/06 08:31:31;;;;;;;5.53;3.63;;;;;;;22.61;72.83;98928.28;5053845;28;20165;-52
2022/09/06 08:33:57;;;;;;;9.75;4.05;;;;;;;22.57;73.17;98911.13;5054050;28;20177;-52
2022/09/06 08:36:26;;;;;;;4.32;3.92;;;;;;;22.44;73.50;98916.13;5054065;28;20173;-53
2022/09/06 08:38:51;;;;;;;4.40;3.85;;;;;;;22.61;72.69;98923.00;5053745;28;20169;-52
2022/09/06 08:41:27;;;;;;;7.85;4.63;;;;;;;22.69;73.22;98915.06;5053722;28;20173;-53
2022/09/06 08:44:05;;;;;;;9.63;4.32;;;;;;;22.87;71.49;98918.31;5053607;28;20606;-53
2022/09/06 08:46:39;;;;;;;4.10;3.47;;;;;;;22.93;69.92;98912.34;5053645;28;20563;-52
2022/09/06 08:49:06;;;;;;;8.48;3.70;;;;;;;22.57;71.89;98916.41;5053795;28;20644;-52
2022/09/06 08:51:48;;;;;;;7.68;3.60;;;;;;;22.46;73.33;98914.97;5035618;28;20660;-53
2022/09/06 08:54:37;;;;;;;4.28;3.30;;;;;;;22.45;72.76;98876.41;5053732;28;20244;-53
2022/09/06 08:57:21;;;;;;;6.22;3.42;;;;;;;22.85;70.62;98900.00;5041268;28;20189;-53
2022/09/06 08:59:49;;;;;;;5.15;3.72;;;;;;;22.89;70.59;98900.50;5053400;28;20173;-52
2022/09/06 09:02:19;;;;;;;5.18;4.10;;;;;;;22.86;70.74;98896.41;5053329;28;20712;-52
2022/09/06 09:04:55;;;;;;;5.10;3.42;;;;;;;22.98;71.27;98899.47;5053377;28;20649;-52
2022/09/06 09:07:48;;;;;;;6.43;3.80;;;;;;;23.14;69.69;98894.94;5053018;28;20216;-52
2022/09/06 09:10:26;;;;;;;6.93;3.40;;;;;;;23.15;68.32;98885.22;5045062;28;20180;-52
2022/09/06 09:12:52;;;;;;;4.57;3.13;;;;;;;23.12;68.76;98872.34;5053171;28;20255;-52
2022/09/06 09:15:19;;;;;;;7.63;3.40;;;;;;;23.30;69.30;98870.31;5053124;28;20234;-52
2022/09/06 09:17:47;;;;;;;3.40;3.10;;;;;;;23.38;66.89;98867.63;5053047;28;20169;-52
2022/09/06 09:20:12;;;;;;;5.75;3.15;;;;;;;23.30;67.76;98867.69;5053162;28;20653;-52
2022/09/06 09:22:39;;;;;;;3.60;3.30;;;;;;;23.41;67.46;98870.72;5052944;28;20175;-52
2022/09/06 09:25:07;;;;;;;3.75;3.00;;;;;;;23.56;66.87;98873.44;5052708;28;20169;-52
2022/09/06 09:27:33;;;;;;;5.35;2.97;;;;;;;23.50;65.96;98869.69;5052783;28;20666;-52
2022/09/06 09:30:01;;;;;;;2.90;2.70;;;;;;;23.56;66.94;98849.66;5034821;28;20184;-52
2022/09/06 09:32:34;;;;;;;3.38;2.70;;;;;;;23.43;66.06;98862.63;5052743;28;20251;-52
2022/09/06 09:35:22;;;;;;;3.15;2.72;;;;;;;23.58;66.23;98852.94;5053240;28;20169;-52
2022/09/06 09:37:58;;;;;;;3.30;2.78;;;;;;;23.73;65.90;98840.63;5041970;28;20185;-52
2022/09/06 09:40:23;;;;;;;6.72;2.70;;;;;;;23.78;65.82;98847.00;5052650;28;20161;-52
2022/09/06 09:42:49;;;;;;;5.53;2.67;;;;;;;23.80;63.72;98835.25;5052573;28;20177;-52
2022/09/06 09:45:29;;;;;;;4.03;2.80;;;;;;;23.92;63.87;98842.81;5052469;28;20226;-52
2022/09/06 09:47:55;;;;;;;2.90;2.70;;;;;;;23.98;63.49;98826.22;5052419;28;20196;-52
2022/09/06 09:50:27;;;;;;;3.17;2.83;;;;;;;24.02;63.32;98813.28;5052405;28;20207;-52
2022/09/06 09:52:54;;;;;;;3.22;2.92;;;;;;;24.34;62.94;98836.78;5052257;28;20185;-52
2022/09/06 09:55:24;;;;;;;2.80;2.60;;;;;;;24.22;60.28;98834.75;5052840;28;20165;-51
2022/09/06 09:57:53;;;;;;;4.60;2.60;;;;;;;24.12;60.33;98826.25;5052260;28;20169;-52
2022/09/06 10:00:38;;;;;;;3.78;2.70;;;;;;;24.15;60.17;98829.34;5052219;28;20654;-53
2022/09/06 10:03:15;;;;;;;2.45;2.25;;;;;;;24.27;58.09;98829.75;5052430;28;20259;-52
2022/09/06 10:05:53;;;;;;;4.57;2.78;;;;;;;24.21;58.84;98826.00;5052440;28;20168;-53
2022/09/06 10:08:24;;;;;;;2.90;2.70;;;;;;;24.30;58.95;98830.22;5052043;28;20193;-53
2022/09/06 10:10:49;;;;;;;5.00;3.88;;;;;;;24.44;59.21;98832.03;5052275;28;20157;-53
2022/09/06 10:13:22;;;;;;;7.63;3.40;;;;;;;24.59;59.52;98822.31;5052162;28;20215;-53
2022/09/06 10:15:49;;;;;;;4.75;3.63;;;;;;;24.81;58.72;98816.09;5052045;28;20173;-53
2022/09/06 10:18:37;;;;;;;3.90;3.47;;;;;;;24.99;58.31;98819.16;5052257;28;20177;-53
2022/09/06 10:21:24;;;;;;;5.47;3.38;;;;;;;25.22;56.79;98817.19;5051408;28;20193;-53
2022/09/06 10:24:04;;;;;;;4.65;3.05;;;;;;;25.43;57.00;98814.56;5052113;28;20149;-53
2022/09/06 10:26:48;;;;;;;3.08;2.85;;;;;;;25.30;54.90;98803.84;5052168;28;20181;-53
2022/09/06 10:29:25;;;;;;;4.45;3.35;;;;;;;25.36;55.75;98808.41;5051889;28;20666;-53
2022/09/06 10:32:09;;;;;;;4.20;3.80;;;;;;;25.40;55.72;98806.19;5052079;28;20170;-53
2022/09/06 10:34:59;;;;;;;6.13;2.95;;;;;;;25.58;55.75;98799.44;5052170;28;20161;-53
2022/09/06 10:37:24;;;;;;;3.95;2.75;;;;;;;25.68;53.23;98799.13;5058299;28;20169;-53
2022/09/06 10:40:08;;;;;;;2.72;2.53;;;;;;;25.78;54.72;98803.06;5040569;28;20204;-53
2022/09/06 10:42:45;;;;;;;2.08;1.98;;;;;;;25.75;53.28;98797.34;5058365;28;20195;-53
2022/09/06 10:45:30;;;;;;;7.63;2.58;;;;;;;26.10;52.04;98793.78;5058690;28;20553;-52
2022/09/06 10:48:13;;;;;;;2.60;2.38;;;;;;;26.22;50.74;98794.88;5058559;28;20278;-53
2022/09/06 10:50:47;;;;;;;3.85;2.20;;;;;;;26.44;50.73;98796.44;5058633;28;20164;-53
2022/09/06 10:53:26;;;;;;;3.75;2.78;;;;;;;26.78;50.14;98789.31;5058851;28;20165;-53
2022/09/06 10:56:01;;;;;;;2.92;2.70;;;;;;;27.02;48.59;98796.75;5058570;28;20723;-53
2022/09/06 10:58:33;;;;;;;3.60;2.55;;;;;;;27.21;48.50;98780.06;5058793;28;20172;-52
2022/09/06 11:00:58;;;;;;;2.65;2.45;;;;;;;27.07;48.16;98786.34;5058557;28;20165;-53
2022/09/06 11:03:33;;;;;;;2.63;2.42;;;;;;;26.63;48.79;98774.50;5058261;28;20222;-53
2022/09/06 11:06:09;;;;;;;3.05;2.85;;;;;;;26.80;48.79;98781.13;5058437;28;20720;-53
2022/09/06 11:08:42;;;;;;;3.00;2.35;;;;;;;27.14;49.00;98778.38;5058280;28;20204;-53
2022/09/06 11:11:16;;;;;;;2.85;2.30;;;;;;;27.11;48.34;98778.81;5058264;28;20189;-53
2022/09/06 11:13:42;;;;;;;5.25;3.25;;;;;;;27.33;47.80;98778.47;5058186;28;20625;-53
2022/09/06 11:16:14;;;;;;;2.28;2.17;;;;;;;27.33;46.19;98780.28;5040206;28;20187;-53
2022/09/06 11:19:00;;;;;;;2.20;2.10;;;;;;;27.35;45.93;98773.75;5058262;28;20692;-53
2022/09/06 11:21:58;;;;;;;1.90;1.80;;;;;;;27.26;45.44;98777.63;5058395;28;20684;-53
2022/09/06 11:24:58;;;;;;;2.63;2.15;;;;;;;27.26;46.73;98743.09;5058615;28;20165;-53
2022/09/06 11:27:29;;;;;;;2.05;1.95;;;;;;;27.42;45.49;98771.94;4977098;28;20179;-53
2022/09/06 11:29:57;;;;;;;2.90;2.25;;;;;;;27.24;46.13;98768.22;5044240;28;20599;-53
2022/09/06 11:32:42;;;;;;;2.60;2.40;;;;;;;27.23;46.00;98763.94;5057955;28;20181;-53
2022/09/06 11:35:19;;;;;;;3.50;2.15;;;;;;;27.58;45.55;98760.09;5057935;28;20657;-53
2022/09/06 11:37:48;;;;;;;2.25;2.13;;;;;;;27.65;44.77;98756.38;5058107;28;20164;-53
2022/09/06 11:40:23;;;;;;;3.25;1.90;;;;;;;27.85;43.74;98764.41;5058154;28;20195;-53
2022/09/06 11:42:48;;;;;;;2.85;2.15;;;;;;;28.13;43.38;98765.00;5058195;28;20522;-53
2022/09/06 11:45:19;;;;;;;2.55;1.70;;;;;;;28.21;43.07;98757.59;5057852;28;20173;-53